createdAt,value
2019-04-26T00:03:53.089Z,4.85
2019-04-26T00:09:57.436Z,7.62
2019-04-26T00:16:11.585Z,8.53
2019-04-26T00:22:15.288Z,8.65
2019-04-26T00:28:17.534Z,7.10
2019-04-26T00:34:19.731Z,5.92
2019-04-26T00:40:22.428Z,6.97
2019-04-26T00:46:27.279Z,6.72
2019-04-26T00:52:30.247Z,7.67
2019-04-26T00:58:33.614Z,5.40
2019-04-26T01:04:36.027Z,5.53
2019-04-26T01:10:38.338Z,7.58
2019-04-26T01:16:40.666Z,11.70
2019-04-26T01:22:47.774Z,6.90
2019-04-26T01:28:57.050Z,5.80
2019-04-26T01:34:59.164Z,7.55
2019-04-26T01:41:04.106Z,8.38
2019-04-26T01:47:06.315Z,7.45
2019-04-26T01:53:08.778Z,7.35
2019-04-26T01:59:13.543Z,5.55
2019-04-26T02:05:20.307Z,7.33
2019-04-26T02:11:24.089Z,7.78
2019-04-26T02:17:27.300Z,6.95
2019-04-26T02:23:32.069Z,7.90
2019-04-26T02:29:35.336Z,7.15
2019-04-26T02:35:37.513Z,5.42
2019-04-26T02:41:39.742Z,6.22
2019-04-26T02:47:56.241Z,8.28
2019-04-26T02:54:11.764Z,4.25
2019-04-26T03:00:17.028Z,7.78
2019-04-26T03:06:19.172Z,7.00
2019-04-26T03:12:26.300Z,5.62
2019-04-26T03:18:38.839Z,6.47
2019-04-26T03:25:00.777Z,8.30
2019-04-26T03:31:42.819Z,6.12
2019-04-26T03:37:50.922Z,8.63
2019-04-26T03:44:02.655Z,7.97
2019-04-26T03:50:14.163Z,8.15
2019-04-26T03:56:51.817Z,8.43
2019-04-26T04:03:08.303Z,8.35
2019-04-26T04:09:11.215Z,8.35
2019-04-26T04:15:19.979Z,6.78
2019-04-26T04:21:37.484Z,7.67
2019-04-26T04:27:49.861Z,7.67
2019-04-26T04:34:05.391Z,4.45
2019-04-26T04:40:36.560Z,8.08
2019-04-26T04:47:34.103Z,6.55
2019-04-26T04:54:23.955Z,9.13
2019-04-26T05:00:54.842Z,7.97
2019-04-26T05:07:45.959Z,7.70
2019-04-26T05:14:12.064Z,6.78
2019-04-26T05:20:31.136Z,6.92
2019-04-26T05:27:02.409Z,9.75
2019-04-26T05:33:36.595Z,7.92
2019-04-26T05:39:51.591Z,10.03
2019-04-26T05:46:29.037Z,6.95
2019-04-26T05:53:44.856Z,7.05
2019-04-26T06:00:02.485Z,7.20
2019-04-26T06:06:34.516Z,7.33
2019-04-26T06:13:20.495Z,9.25
2019-04-26T06:19:48.694Z,5.87
2019-04-26T06:26:26.520Z,7.17
2019-04-26T06:32:38.733Z,6.95
2019-04-26T06:39:20.075Z,7.60
2019-04-26T06:46:15.927Z,7.70
2019-04-26T06:52:21.823Z,11.48
2019-04-26T06:58:57.969Z,9.88
2019-04-26T07:05:15.077Z,10.88
2019-04-26T07:11:50.093Z,11.20
2019-04-26T07:18:28.122Z,7.55
2019-04-26T07:25:09.026Z,6.45
2019-04-26T07:31:52.602Z,10.72
2019-04-26T07:38:53.647Z,8.70
2019-04-26T07:45:10.954Z,13.20
2019-04-26T07:52:09.100Z,8.65
2019-04-26T07:58:47.063Z,11.12
2019-04-26T08:05:00.612Z,10.72
2019-04-26T08:11:15.328Z,10.68
2019-04-26T08:17:24.553Z,13.35
2019-04-26T08:23:42.174Z,13.10
2019-04-26T08:29:41.093Z,12.03
2019-04-26T08:35:48.976Z,14.07
2019-04-26T08:41:53.570Z,9.35
2019-04-26T08:47:58.618Z,11.50
2019-04-26T08:54:04.562Z,9.63
2019-04-26T09:00:12.482Z,14.45
2019-04-26T09:06:30.696Z,15.88
2019-04-26T09:12:35.647Z,8.08
2019-04-26T09:18:43.665Z,13.95
2019-04-26T09:24:50.055Z,10.68
2019-04-26T09:30:54.295Z,8.88
2019-04-26T09:36:57.722Z,12.80
2019-04-26T09:43:10.422Z,11.93
2019-04-26T09:49:25.960Z,15.85
2019-04-26T09:55:35.121Z,12.13
2019-04-26T10:01:33.211Z,16.12
2019-04-26T10:07:37.496Z,12.10
2019-04-26T10:13:41.280Z,10.93
2019-04-26T10:19:48.290Z,13.13
2019-04-26T10:25:52.020Z,10.75
2019-04-26T10:31:54.553Z,7.12
2019-04-26T10:37:56.764Z,14.05
2019-04-26T10:43:58.962Z,18.32
2019-04-26T10:50:01.244Z,9.63
2019-04-26T10:56:24.234Z,13.05
2019-04-26T11:02:26.414Z,17.05
2019-04-26T11:08:29.020Z,19.77
2019-04-26T11:14:31.237Z,15.13
2019-04-26T11:20:33.587Z,16.12
2019-04-26T11:26:36.252Z,8.28
2019-04-26T11:32:38.703Z,7.50
2019-04-26T11:38:43.053Z,6.05
2019-04-26T11:44:45.277Z,6.10
2019-04-26T11:50:48.179Z,15.18
2019-04-26T11:56:52.663Z,11.48
2019-04-26T12:02:54.872Z,11.48
2019-04-26T12:08:58.947Z,10.53
2019-04-26T12:15:03.761Z,9.58
2019-04-26T12:21:05.208Z,8.73
2019-04-26T12:27:10.121Z,10.68
2019-04-26T12:33:11.783Z,7.10
2019-04-26T12:39:17.688Z,6.37
2019-04-26T12:45:23.916Z,4.03
2019-04-26T12:51:26.318Z,8.60
2019-04-26T12:57:30.519Z,7.92
2019-04-26T13:03:33.451Z,8.93
2019-04-26T13:09:37.559Z,12.58
2019-04-26T13:16:00.326Z,7.12
2019-04-26T13:22:02.572Z,8.68
2019-04-26T13:28:04.758Z,8.70
2019-04-26T13:34:06.993Z,10.78
2019-04-26T13:40:12.408Z,10.60
2019-04-26T13:46:19.167Z,8.55
2019-04-26T13:52:21.416Z,11.40
2019-04-26T13:58:25.595Z,9.75
2019-04-26T14:04:27.666Z,6.62
2019-04-26T14:10:29.911Z,6.37
2019-04-26T14:16:32.164Z,7.80
2019-04-26T14:22:42.463Z,8.45
2019-04-26T14:28:44.842Z,14.13
2019-04-26T14:34:47.194Z,30.95
2019-04-26T14:41:03.213Z,16.77
2019-04-26T14:46:56.774Z,25.35
2019-04-26T14:53:02.347Z,32.10
2019-04-26T14:59:08.306Z,19.92
2019-04-26T15:05:12.288Z,30.75
2019-04-26T15:11:14.639Z,20.32
2019-04-26T15:17:20.109Z,14.10
2019-04-26T15:23:23.832Z,10.05
2019-04-26T15:29:27.010Z,13.10
2019-04-26T15:35:32.628Z,10.15
2019-04-26T15:41:40.493Z,12.05
2019-04-26T15:47:47.460Z,12.55
2019-04-26T15:53:49.852Z,9.53
2019-04-26T15:59:54.407Z,12.00
2019-04-26T16:05:59.223Z,8.38
2019-04-26T16:12:00.847Z,8.98
2019-04-26T16:18:04.236Z,6.00
2019-04-26T16:24:06.526Z,5.92
2019-04-26T16:30:20.702Z,6.75
2019-04-26T16:36:24.002Z,3.75
2019-04-26T16:42:28.467Z,3.15
2019-04-26T16:48:30.767Z,4.47
2019-04-26T16:54:34.236Z,2.98
2019-04-26T17:00:50.256Z,1.77
2019-04-26T17:06:44.931Z,1.62
2019-04-26T17:12:46.291Z,2.98
2019-04-26T17:18:50.128Z,3.50
2019-04-26T17:24:56.942Z,2.33
2019-04-26T17:30:59.218Z,3.90
2019-04-26T17:37:02.520Z,7.40
2019-04-26T17:43:09.744Z,1.10
2019-04-26T17:49:11.480Z,1.87
2019-04-26T17:55:14.875Z,13.78
2019-04-26T18:01:41.201Z,1.20
2019-04-26T18:07:40.169Z,4.62
2019-04-26T18:13:25.974Z,3.10
2019-04-26T18:19:36.007Z,2.10
2019-04-26T18:25:41.284Z,2.22
2019-04-26T18:31:43.833Z,0.98
2019-04-26T18:37:46.404Z,1.12
2019-04-26T18:43:54.072Z,1.05
2019-04-26T18:49:58.150Z,2.15
2019-04-26T18:56:03.451Z,1.22
2019-04-26T19:02:04.755Z,1.07
2019-04-26T19:08:09.423Z,0.98
2019-04-26T19:14:25.496Z,1.07
2019-04-26T19:20:46.339Z,1.00
2019-04-26T19:26:49.936Z,1.17
2019-04-26T19:32:53.934Z,2.12
2019-04-26T19:38:56.243Z,1.47
2019-04-26T19:45:11.947Z,1.50
2019-04-26T19:51:04.408Z,1.52
2019-04-26T19:57:28.206Z,1.62
2019-04-26T20:03:32.069Z,1.50
2019-04-26T20:09:34.765Z,2.52
2019-04-26T20:15:37.011Z,1.40
2019-04-26T20:21:41.221Z,1.40
2019-04-26T20:27:43.563Z,1.42
2019-04-26T20:33:47.791Z,1.62
2019-04-26T20:39:55.892Z,1.40
2019-04-26T20:46:11.048Z,2.65
2019-04-26T20:51:58.528Z,2.33
2019-04-26T20:58:05.691Z,3.98
2019-04-26T21:04:06.144Z,1.90
2019-04-26T21:10:08.553Z,2.22
2019-04-26T21:16:15.034Z,2.50
2019-04-26T21:22:18.284Z,1.95
2019-04-26T21:28:33.079Z,2.20
2019-04-26T21:34:37.170Z,1.82
2019-04-26T21:40:44.331Z,1.65
2019-04-26T21:46:49.568Z,1.37
2019-04-26T21:52:50.530Z,1.30
2019-04-26T21:58:53.343Z,2.40
2019-04-26T22:04:55.739Z,2.50
2019-04-26T22:10:58.295Z,3.08
2019-04-26T22:17:05.261Z,2.70
2019-04-26T22:23:11.531Z,2.80
2019-04-26T22:29:16.846Z,3.80
2019-04-26T22:35:21.357Z,4.10
2019-04-26T22:41:24.450Z,3.70
2019-04-26T22:47:42.455Z,3.40
2019-04-26T22:53:43.381Z,3.02
2019-04-26T22:59:50.141Z,4.87
2019-04-26T23:05:49.876Z,4.15
2019-04-26T23:12:06.269Z,4.45
2019-04-26T23:18:25.363Z,4.45
2019-04-26T23:24:27.483Z,4.33
2019-04-26T23:30:31.729Z,5.55
2019-04-26T23:36:34.884Z,3.62
2019-04-26T23:42:37.235Z,4.03
2019-04-26T23:48:42.735Z,2.30
2019-04-26T23:54:43.407Z,3.08
